sensor_id;sensor_type;location;lat;lon;timestamp;P1;durP1;ratioP1;P2;durP2;ratioP2
14369;SDS011;7268;50.792;0.252;2022-07-23T00:00:19;3.00;;;1.10;;
14369;SDS011;7268;50.792;0.252;2022-07-23T00:02:47;5.63;;;1.10;;
14369;SDS011;7268;50.792;0.252;2022-07-23T00:05:14;4.97;;;0.93;;
14369;SDS011;7268;50.792;0.252;2022-07-23T00:07:42;5.60;;;1.45;;
14369;SDS011;7268;50.792;0.252;2022-07-23T00:10:09;7.07;;;1.15;;
14369;SDS011;7268;50.792;0.252;2022-07-23T00:12:37;3.30;;;1.38;;
14369;SDS011;7268;50.792;0.252;2022-07-23T00:15:17;9.18;;;1.30;;
14369;SDS011;7268;50.792;0.252;2022-07-23T00:17:45;7.68;;;1.30;;
14369;SDS011;7268;50.792;0.252;2022-07-23T00:20:13;5.55;;;1.20;;
14369;SDS011;7268;50.792;0.252;2022-07-23T00:22:50;3.15;;;0.88;;
14369;SDS011;7268;50.792;0.252;2022-07-23T00:25:17;5.60;;;1.13;;
14369;SDS011;7268;50.792;0.252;2022-07-23T00:27:55;3.83;;;1.10;;
14369;SDS011;7268;50.792;0.252;2022-07-23T00:30:22;5.80;;;1.15;;
14369;SDS011;7268;50.792;0.252;2022-07-23T00:32:50;5.75;;;1.25;;
14369;SDS011;7268;50.792;0.252;2022-07-23T00:35:22;3.95;;;1.42;;
14369;SDS011;7268;50.792;0.252;2022-07-23T00:37:50;4.57;;;1.48;;
14369;SDS011;7268;50.792;0.252;2022-07-23T00:40:17;7.20;;;1.10;;
14369;SDS011;7268;50.792;0.252;2022-07-23T00:42:44;4.97;;;1.00;;
14369;SDS011;7268;50.792;0.252;2022-07-23T00:45:12;5.90;;;1.10;;
14369;SDS011;7268;50.792;0.252;2022-07-23T00:47:39;3.20;;;1.00;;
14369;SDS011;7268;50.792;0.252;2022-07-23T00:50:08;4.03;;;1.10;;
14369;SDS011;7268;50.792;0.252;2022-07-23T00:52:36;4.68;;;1.23;;
14369;SDS011;7268;50.792;0.252;2022-07-23T00:55:04;3.97;;;1.40;;
14369;SDS011;7268;50.792;0.252;2022-07-23T00:57:32;12.63;;;1.40;;
14369;SDS011;7268;50.792;0.252;2022-07-23T00:59:59;7.60;;;1.20;;
14369;SDS011;7268;50.792;0.252;2022-07-23T01:02:27;5.50;;;1.20;;
14369;SDS011;7268;50.792;0.252;2022-07-23T01:04:54;7.95;;;1.52;;
14369;SDS011;7268;50.792;0.252;2022-07-23T01:07:22;11.55;;;1.55;;
14369;SDS011;7268;50.792;0.252;2022-07-23T01:09:50;4.65;;;1.35;;
14369;SDS011;7268;50.792;0.252;2022-07-23T01:12:18;4.40;;;1.52;;
14369;SDS011;7268;50.792;0.252;2022-07-23T01:14:45;7.30;;;1.55;;
14369;SDS011;7268;50.792;0.252;2022-07-23T01:17:12;6.03;;;1.40;;
14369;SDS011;7268;50.792;0.252;2022-07-23T01:19:40;4.65;;;1.30;;
14369;SDS011;7268;50.792;0.252;2022-07-23T01:22:07;4.82;;;1.30;;
14369;SDS011;7268;50.792;0.252;2022-07-23T01:24:35;5.90;;;1.20;;
14369;SDS011;7268;50.792;0.252;2022-07-23T01:27:02;4.15;;;1.58;;
14369;SDS011;7268;50.792;0.252;2022-07-23T01:29:31;3.00;;;1.58;;
14369;SDS011;7268;50.792;0.252;2022-07-23T01:31:59;4.45;;;1.40;;
14369;SDS011;7268;50.792;0.252;2022-07-23T01:34:26;4.13;;;1.30;;
14369;SDS011;7268;50.792;0.252;2022-07-23T01:36:53;7.95;;;1.83;;
14369;SDS011;7268;50.792;0.252;2022-07-23T01:39:20;4.15;;;1.40;;
14369;SDS011;7268;50.792;0.252;2022-07-23T01:41:48;4.32;;;1.42;;
14369;SDS011;7268;50.792;0.252;2022-07-23T01:44:16;4.75;;;1.58;;
14369;SDS011;7268;50.792;0.252;2022-07-23T01:46:44;5.20;;;1.50;;
14369;SDS011;7268;50.792;0.252;2022-07-23T01:49:11;14.38;;;1.48;;
14369;SDS011;7268;50.792;0.252;2022-07-23T01:51:38;8.55;;;1.77;;
14369;SDS011;7268;50.792;0.252;2022-07-23T01:54:29;5.97;;;1.45;;
14369;SDS011;7268;50.792;0.252;2022-07-23T01:56:56;7.20;;;1.45;;
14369;SDS011;7268;50.792;0.252;2022-07-23T01:59:24;2.08;;;1.25;;
14369;SDS011;7268;50.792;0.252;2022-07-23T02:01:51;4.35;;;1.35;;
14369;SDS011;7268;50.792;0.252;2022-07-23T02:04:22;5.43;;;1.42;;
14369;SDS011;7268;50.792;0.252;2022-07-23T02:06:50;7.35;;;1.35;;
14369;SDS011;7268;50.792;0.252;2022-07-23T02:09:18;6.03;;;1.25;;
14369;SDS011;7268;50.792;0.252;2022-07-23T02:11:45;7.90;;;1.42;;
14369;SDS011;7268;50.792;0.252;2022-07-23T02:14:12;5.05;;;1.40;;
14369;SDS011;7268;50.792;0.252;2022-07-23T02:16:40;5.57;;;1.60;;
14369;SDS011;7268;50.792;0.252;2022-07-23T02:19:07;5.13;;;1.48;;
14369;SDS011;7268;50.792;0.252;2022-07-23T02:21:35;6.35;;;1.50;;
14369;SDS011;7268;50.792;0.252;2022-07-23T02:24:03;5.03;;;1.40;;
14369;SDS011;7268;50.792;0.252;2022-07-23T02:26:30;5.70;;;1.42;;
14369;SDS011;7268;50.792;0.252;2022-07-23T02:29:01;4.65;;;1.40;;
14369;SDS011;7268;50.792;0.252;2022-07-23T02:31:30;8.18;;;1.60;;
14369;SDS011;7268;50.792;0.252;2022-07-23T02:33:57;1.70;;;1.20;;
14369;SDS011;7268;50.792;0.252;2022-07-23T02:36:25;5.15;;;1.40;;
14369;SDS011;7268;50.792;0.252;2022-07-23T02:38:52;6.95;;;1.33;;
14369;SDS011;7268;50.792;0.252;2022-07-23T02:41:20;3.92;;;1.42;;
14369;SDS011;7268;50.792;0.252;2022-07-23T02:43:47;4.72;;;1.35;;
14369;SDS011;7268;50.792;0.252;2022-07-23T02:46:14;5.97;;;1.30;;
14369;SDS011;7268;50.792;0.252;2022-07-23T02:48:42;3.95;;;1.00;;
14369;SDS011;7268;50.792;0.252;2022-07-23T02:51:09;4.75;;;1.10;;
14369;SDS011;7268;50.792;0.252;2022-07-23T02:53:40;5.03;;;1.52;;
14369;SDS011;7268;50.792;0.252;2022-07-23T02:56:10;8.88;;;1.40;;
14369;SDS011;7268;50.792;0.252;2022-07-23T02:58:38;10.40;;;1.83;;
14369;SDS011;7268;50.792;0.252;2022-07-23T03:01:05;9.10;;;1.40;;
14369;SDS011;7268;50.792;0.252;2022-07-23T03:03:32;4.00;;;1.33;;
14369;SDS011;7268;50.792;0.252;2022-07-23T03:06:00;3.60;;;1.52;;
14369;SDS011;7268;50.792;0.252;2022-07-23T03:08:27;3.90;;;1.40;;
14369;SDS011;7268;50.792;0.252;2022-07-23T03:10:54;2.97;;;1.50;;
14369;SDS011;7268;50.792;0.252;2022-07-23T03:13:22;4.10;;;1.20;;
14369;SDS011;7268;50.792;0.252;2022-07-23T03:15:49;5.18;;;1.77;;
14369;SDS011;7268;50.792;0.252;2022-07-23T03:18:16;3.90;;;1.20;;
14369;SDS011;7268;50.792;0.252;2022-07-23T03:20:44;8.68;;;1.20;;
14369;SDS011;7268;50.792;0.252;2022-07-23T03:23:11;7.60;;;1.90;;
14369;SDS011;7268;50.792;0.252;2022-07-23T03:25:38;4.13;;;1.10;;
14369;SDS011;7268;50.792;0.252;2022-07-23T03:28:06;4.88;;;1.30;;
14369;SDS011;7268;50.792;0.252;2022-07-23T03:30:33;3.65;;;1.27;;
14369;SDS011;7268;50.792;0.252;2022-07-23T03:33:00;4.35;;;1.10;;
14369;SDS011;7268;50.792;0.252;2022-07-23T03:35:28;5.75;;;1.00;;
14369;SDS011;7268;50.792;0.252;2022-07-23T03:37:55;7.07;;;1.63;;
14369;SDS011;7268;50.792;0.252;2022-07-23T03:40:23;1.42;;;1.00;;
14369;SDS011;7268;50.792;0.252;2022-07-23T03:42:50;4.15;;;1.20;;
14369;SDS011;7268;50.792;0.252;2022-07-23T03:45:17;4.70;;;1.05;;
14369;SDS011;7268;50.792;0.252;2022-07-23T03:47:44;4.43;;;1.30;;
14369;SDS011;7268;50.792;0.252;2022-07-23T03:50:12;3.33;;;1.33;;
14369;SDS011;7268;50.792;0.252;2022-07-23T03:52:39;8.75;;;1.35;;
14369;SDS011;7268;50.792;0.252;2022-07-23T03:55:06;5.65;;;1.17;;
14369;SDS011;7268;50.792;0.252;2022-07-23T03:57:34;4.03;;;1.40;;
14369;SDS011;7268;50.792;0.252;2022-07-23T04:00:04;3.60;;;1.20;;
14369;SDS011;7268;50.792;0.252;2022-07-23T04:02:33;3.70;;;1.08;;
14369;SDS011;7268;50.792;0.252;2022-07-23T04:05:00;2.13;;;1.40;;
14369;SDS011;7268;50.792;0.252;2022-07-23T04:07:28;4.35;;;1.10;;
14369;SDS011;7268;50.792;0.252;2022-07-23T04:09:55;6.70;;;1.25;;
14369;SDS011;7268;50.792;0.252;2022-07-23T04:12:23;3.72;;;1.17;;
14369;SDS011;7268;50.792;0.252;2022-07-23T04:14:50;4.95;;;1.30;;
14369;SDS011;7268;50.792;0.252;2022-07-23T04:17:17;3.28;;;1.20;;
14369;SDS011;7268;50.792;0.252;2022-07-23T04:19:45;5.43;;;1.20;;
14369;SDS011;7268;50.792;0.252;2022-07-23T04:22:12;5.22;;;1.00;;
14369;SDS011;7268;50.792;0.252;2022-07-23T04:24:41;2.80;;;1.10;;
14369;SDS011;7268;50.792;0.252;2022-07-23T04:27:08;5.28;;;1.20;;
14369;SDS011;7268;50.792;0.252;2022-07-23T04:29:35;5.20;;;1.10;;
14369;SDS011;7268;50.792;0.252;2022-07-23T04:32:03;3.95;;;1.23;;
14369;SDS011;7268;50.792;0.252;2022-07-23T04:34:30;3.58;;;1.65;;
14369;SDS011;7268;50.792;0.252;2022-07-23T04:36:57;5.57;;;1.35;;
14369;SDS011;7268;50.792;0.252;2022-07-23T04:39:25;4.05;;;1.23;;
14369;SDS011;7268;50.792;0.252;2022-07-23T04:41:52;6.22;;;1.10;;
14369;SDS011;7268;50.792;0.252;2022-07-23T04:44:19;5.32;;;1.50;;
14369;SDS011;7268;50.792;0.252;2022-07-23T04:46:47;1.95;;;1.48;;
14369;SDS011;7268;50.792;0.252;2022-07-23T04:49:16;3.95;;;2.05;;
14369;SDS011;7268;50.792;0.252;2022-07-23T04:51:44;3.42;;;1.30;;
14369;SDS011;7268;50.792;0.252;2022-07-23T04:54:11;5.50;;;1.40;;
14369;SDS011;7268;50.792;0.252;2022-07-23T04:56:38;8.65;;;1.58;;
14369;SDS011;7268;50.792;0.252;2022-07-23T04:59:06;5.18;;;1.42;;
14369;SDS011;7268;50.792;0.252;2022-07-23T05:01:33;5.93;;;1.60;;
14369;SDS011;7268;50.792;0.252;2022-07-23T05:04:00;7.07;;;1.48;;
14369;SDS011;7268;50.792;0.252;2022-07-23T05:06:28;5.72;;;1.48;;
14369;SDS011;7268;50.792;0.252;2022-07-23T05:08:55;4.10;;;1.10;;
14369;SDS011;7268;50.792;0.252;2022-07-23T05:11:23;3.70;;;1.48;;
14369;SDS011;7268;50.792;0.252;2022-07-23T05:13:52;3.42;;;1.30;;
14369;SDS011;7268;50.792;0.252;2022-07-23T05:16:20;4.60;;;1.23;;
14369;SDS011;7268;50.792;0.252;2022-07-23T05:18:47;8.73;;;1.55;;
14369;SDS011;7268;50.792;0.252;2022-07-23T05:21:14;4.97;;;1.20;;
14369;SDS011;7268;50.792;0.252;2022-07-23T05:23:42;1.98;;;1.05;;
14369;SDS011;7268;50.792;0.252;2022-07-23T05:26:09;7.68;;;1.27;;
14369;SDS011;7268;50.792;0.252;2022-07-23T05:28:36;7.70;;;1.50;;
14369;SDS011;7268;50.792;0.252;2022-07-23T05:31:03;2.40;;;1.25;;
14369;SDS011;7268;50.792;0.252;2022-07-23T05:33:31;5.57;;;1.70;;
14369;SDS011;7268;50.792;0.252;2022-07-23T05:36:02;4.40;;;1.30;;
14369;SDS011;7268;50.792;0.252;2022-07-23T05:38:30;5.18;;;1.40;;
14369;SDS011;7268;50.792;0.252;2022-07-23T05:40:58;7.32;;;1.77;;
14369;SDS011;7268;50.792;0.252;2022-07-23T05:43:26;3.40;;;1.50;;
14369;SDS011;7268;50.792;0.252;2022-07-23T05:45:54;2.55;;;1.42;;
14369;SDS011;7268;50.792;0.252;2022-07-23T05:48:21;7.15;;;1.45;;
14369;SDS011;7268;50.792;0.252;2022-07-23T05:50:48;10.77;;;1.50;;
14369;SDS011;7268;50.792;0.252;2022-07-23T05:53:16;7.45;;;1.15;;
14369;SDS011;7268;50.792;0.252;2022-07-23T05:55:43;9.68;;;1.58;;
14369;SDS011;7268;50.792;0.252;2022-07-23T05:58:10;10.57;;;1.90;;
14369;SDS011;7268;50.792;0.252;2022-07-23T06:00:38;7.85;;;1.70;;
14369;SDS011;7268;50.792;0.252;2022-07-23T06:03:05;8.82;;;1.35;;
14369;SDS011;7268;50.792;0.252;2022-07-23T06:05:32;6.07;;;1.23;;
14369;SDS011;7268;50.792;0.252;2022-07-23T06:08:00;5.85;;;1.35;;
14369;SDS011;7268;50.792;0.252;2022-07-23T06:10:27;10.93;;;1.30;;
14369;SDS011;7268;50.792;0.252;2022-07-23T06:12:54;3.65;;;1.20;;
14369;SDS011;7268;50.792;0.252;2022-07-23T06:15:28;8.10;;;1.33;;
14369;SDS011;7268;50.792;0.252;2022-07-23T06:17:56;4.43;;;0.90;;
14369;SDS011;7268;50.792;0.252;2022-07-23T06:20:23;5.20;;;1.10;;
14369;SDS011;7268;50.792;0.252;2022-07-23T06:22:51;7.03;;;1.20;;
14369;SDS011;7268;50.792;0.252;2022-07-23T06:25:18;3.15;;;0.88;;
14369;SDS011;7268;50.792;0.252;2022-07-23T06:27:46;5.25;;;1.08;;
14369;SDS011;7268;50.792;0.252;2022-07-23T06:30:14;3.92;;;0.93;;
14369;SDS011;7268;50.792;0.252;2022-07-23T06:32:45;1.77;;;1.08;;
14369;SDS011;7268;50.792;0.252;2022-07-23T06:35:13;2.63;;;0.95;;
14369;SDS011;7268;50.792;0.252;2022-07-23T06:37:41;9.07;;;1.40;;
14369;SDS011;7268;50.792;0.252;2022-07-23T06:40:08;5.90;;;1.33;;
14369;SDS011;7268;50.792;0.252;2022-07-23T06:42:36;8.70;;;1.23;;
14369;SDS011;7268;50.792;0.252;2022-07-23T06:45:05;2.70;;;1.08;;
14369;SDS011;7268;50.792;0.252;2022-07-23T06:47:33;5.03;;;1.20;;
14369;SDS011;7268;50.792;0.252;2022-07-23T06:50:00;4.40;;;1.08;;
14369;SDS011;7268;50.792;0.252;2022-07-23T06:52:28;6.60;;;1.38;;
14369;SDS011;7268;50.792;0.252;2022-07-23T06:54:55;4.05;;;0.90;;
14369;SDS011;7268;50.792;0.252;2022-07-23T06:57:22;4.47;;;1.20;;
14369;SDS011;7268;50.792;0.252;2022-07-23T06:59:51;5.05;;;1.30;;
14369;SDS011;7268;50.792;0.252;2022-07-23T07:02:21;2.53;;;1.10;;
14369;SDS011;7268;50.792;0.252;2022-07-23T07:04:49;8.38;;;1.63;;
14369;SDS011;7268;50.792;0.252;2022-07-23T07:07:16;5.18;;;1.35;;
14369;SDS011;7268;50.792;0.252;2022-07-23T07:09:44;10.48;;;1.35;;
14369;SDS011;7268;50.792;0.252;2022-07-23T07:12:13;3.97;;;1.38;;
14369;SDS011;7268;50.792;0.252;2022-07-23T07:14:41;5.43;;;2.00;;
14369;SDS011;7268;50.792;0.252;2022-07-23T07:17:08;6.70;;;1.50;;
14369;SDS011;7268;50.792;0.252;2022-07-23T07:19:37;3.13;;;1.70;;
14369;SDS011;7268;50.792;0.252;2022-07-23T07:22:04;7.65;;;1.58;;
14369;SDS011;7268;50.792;0.252;2022-07-23T07:24:31;5.43;;;1.80;;
14369;SDS011;7268;50.792;0.252;2022-07-23T07:29:31;7.93;;;1.35;;
14369;SDS011;7268;50.792;0.252;2022-07-23T07:31:58;5.13;;;1.30;;
14369;SDS011;7268;50.792;0.252;2022-07-23T07:34:25;5.78;;;1.30;;
14369;SDS011;7268;50.792;0.252;2022-07-23T07:36:53;5.32;;;1.38;;
14369;SDS011;7268;50.792;0.252;2022-07-23T07:39:20;2.45;;;1.10;;
14369;SDS011;7268;50.792;0.252;2022-07-23T07:41:48;4.32;;;1.40;;
14369;SDS011;7268;50.792;0.252;2022-07-23T07:44:15;2.35;;;1.52;;
14369;SDS011;7268;50.792;0.252;2022-07-23T07:46:42;8.02;;;1.77;;
14369;SDS011;7268;50.792;0.252;2022-07-23T07:49:10;5.93;;;1.58;;
14369;SDS011;7268;50.792;0.252;2022-07-23T07:51:41;8.32;;;1.90;;
14369;SDS011;7268;50.792;0.252;2022-07-23T07:54:11;6.70;;;1.33;;
14369;SDS011;7268;50.792;0.252;2022-07-23T07:56:38;3.60;;;1.52;;
14369;SDS011;7268;50.792;0.252;2022-07-23T07:59:07;5.00;;;1.73;;
14369;SDS011;7268;50.792;0.252;2022-07-23T08:01:36;5.70;;;1.70;;
14369;SDS011;7268;50.792;0.252;2022-07-23T08:04:03;7.85;;;1.83;;
14369;SDS011;7268;50.792;0.252;2022-07-23T08:06:31;5.65;;;1.70;;
14369;SDS011;7268;50.792;0.252;2022-07-23T08:08:59;5.68;;;1.92;;
14369;SDS011;7268;50.792;0.252;2022-07-23T08:11:26;4.47;;;1.38;;
14369;SDS011;7268;50.792;0.252;2022-07-23T08:13:53;4.13;;;1.30;;
14369;SDS011;7268;50.792;0.252;2022-07-23T08:16:21;5.88;;;1.30;;
14369;SDS011;7268;50.792;0.252;2022-07-23T08:18:48;4.05;;;1.33;;
14369;SDS011;7268;50.792;0.252;2022-07-23T08:21:16;6.25;;;1.30;;
14369;SDS011;7268;50.792;0.252;2022-07-23T08:23:43;7.50;;;1.20;;
14369;SDS011;7268;50.792;0.252;2022-07-23T08:26:11;4.38;;;1.17;;
14369;SDS011;7268;50.792;0.252;2022-07-23T08:28:38;5.63;;;1.52;;
14369;SDS011;7268;50.792;0.252;2022-07-23T08:31:05;3.00;;;1.30;;
14369;SDS011;7268;50.792;0.252;2022-07-23T08:33:33;7.72;;;1.33;;
14369;SDS011;7268;50.792;0.252;2022-07-23T08:36:01;4.05;;;1.30;;
14369;SDS011;7268;50.792;0.252;2022-07-23T08:38:29;5.40;;;1.25;;
14369;SDS011;7268;50.792;0.252;2022-07-23T08:40:57;4.22;;;1.20;;
14369;SDS011;7268;50.792;0.252;2022-07-23T08:43:26;5.32;;;1.38;;
14369;SDS011;7268;50.792;0.252;2022-07-23T08:45:54;6.30;;;1.30;;
14369;SDS011;7268;50.792;0.252;2022-07-23T08:48:24;3.53;;;1.20;;
14369;SDS011;7268;50.792;0.252;2022-07-23T08:50:52;4.35;;;1.73;;
14369;SDS011;7268;50.792;0.252;2022-07-23T08:53:23;2.85;;;1.08;;
14369;SDS011;7268;50.792;0.252;2022-07-23T08:55:52;2.92;;;1.27;;
14369;SDS011;7268;50.792;0.252;2022-07-23T08:58:20;6.55;;;1.75;;
14369;SDS011;7268;50.792;0.252;2022-07-23T09:00:53;8.85;;;1.60;;
14369;SDS011;7268;50.792;0.252;2022-07-23T09:03:24;5.47;;;1.10;;
14369;SDS011;7268;50.792;0.252;2022-07-23T09:05:52;6.93;;;1.30;;
14369;SDS011;7268;50.792;0.252;2022-07-23T09:08:20;3.90;;;1.40;;
14369;SDS011;7268;50.792;0.252;2022-07-23T09:10:49;2.85;;;1.50;;
14369;SDS011;7268;50.792;0.252;2022-07-23T09:13:24;6.65;;;1.27;;
14369;SDS011;7268;50.792;0.252;2022-07-23T09:15:52;6.32;;;1.35;;
14369;SDS011;7268;50.792;0.252;2022-07-23T09:18:27;6.10;;;1.55;;
14369;SDS011;7268;50.792;0.252;2022-07-23T09:21:38;8.90;;;1.42;;
14369;SDS011;7268;50.792;0.252;2022-07-23T09:23:47;7.40;;;1.30;;
14369;SDS011;7268;50.792;0.252;2022-07-23T09:26:25;2.70;;;1.30;;
14369;SDS011;7268;50.792;0.252;2022-07-23T09:28:57;8.68;;;1.30;;
14369;SDS011;7268;50.792;0.252;2022-07-23T09:31:25;5.97;;;1.60;;
14369;SDS011;7268;50.792;0.252;2022-07-23T09:34:01;5.63;;;1.40;;
14369;SDS011;7268;50.792;0.252;2022-07-23T09:36:33;3.05;;;1.40;;
14369;SDS011;7268;50.792;0.252;2022-07-23T09:39:00;5.85;;;1.30;;
14369;SDS011;7268;50.792;0.252;2022-07-23T09:41:33;3.97;;;1.33;;
14369;SDS011;7268;50.792;0.252;2022-07-23T09:44:11;2.58;;;1.00;;
14369;SDS011;7268;50.792;0.252;2022-07-23T09:46:39;8.65;;;1.30;;
14369;SDS011;7268;50.792;0.252;2022-07-23T09:49:12;2.90;;;1.40;;
14369;SDS011;7268;50.792;0.252;2022-07-23T09:54:06;7.32;;;1.40;;
14369;SDS011;7268;50.792;0.252;2022-07-23T09:56:46;6.03;;;1.30;;
14369;SDS011;7268;50.792;0.252;2022-07-23T09:59:15;8.35;;;1.67;;
14369;SDS011;7268;50.792;0.252;2022-07-23T10:01:44;2.53;;;1.00;;
14369;SDS011;7268;50.792;0.252;2022-07-23T10:04:12;4.95;;;1.10;;
14369;SDS011;7268;50.792;0.252;2022-07-23T10:06:40;7.13;;;1.50;;
14369;SDS011;7268;50.792;0.252;2022-07-23T10:09:07;6.60;;;1.30;;
14369;SDS011;7268;50.792;0.252;2022-07-23T10:11:35;3.85;;;1.13;;
14369;SDS011;7268;50.792;0.252;2022-07-23T10:14:03;1.88;;;0.95;;
14369;SDS011;7268;50.792;0.252;2022-07-23T10:16:32;5.18;;;1.30;;
14369;SDS011;7268;50.792;0.252;2022-07-23T10:18:59;5.90;;;1.27;;
14369;SDS011;7268;50.792;0.252;2022-07-23T10:24:16;6.40;;;1.30;;
14369;SDS011;7268;50.792;0.252;2022-07-23T10:29:39;4.90;;;1.38;;
14369;SDS011;7268;50.792;0.252;2022-07-23T10:35:03;7.63;;;1.30;;
14369;SDS011;7268;50.792;0.252;2022-07-23T10:37:44;6.63;;;1.52;;
14369;SDS011;7268;50.792;0.252;2022-07-23T10:40:19;4.38;;;1.40;;
14369;SDS011;7268;50.792;0.252;2022-07-23T10:42:48;6.97;;;1.70;;
14369;SDS011;7268;50.792;0.252;2022-07-23T10:45:28;3.28;;;1.40;;
14369;SDS011;7268;50.792;0.252;2022-07-23T10:47:56;5.97;;;1.38;;
14369;SDS011;7268;50.792;0.252;2022-07-23T10:50:38;4.55;;;1.40;;
14369;SDS011;7268;50.792;0.252;2022-07-23T10:55:38;10.05;;;1.58;;
14369;SDS011;7268;50.792;0.252;2022-07-23T10:58:06;6.07;;;1.30;;
14369;SDS011;7268;50.792;0.252;2022-07-23T11:00:34;6.70;;;1.30;;
14369;SDS011;7268;50.792;0.252;2022-07-23T11:03:26;5.65;;;1.17;;
14369;SDS011;7268;50.792;0.252;2022-07-23T11:05:49;6.22;;;1.20;;
14369;SDS011;7268;50.792;0.252;2022-07-23T11:08:17;7.43;;;1.00;;
14369;SDS011;7268;50.792;0.252;2022-07-23T11:10:53;7.88;;;1.15;;
14369;SDS011;7268;50.792;0.252;2022-07-23T11:26:43;5.68;;;1.05;;
14369;SDS011;7268;50.792;0.252;2022-07-23T11:31:55;3.63;;;0.75;;
14369;SDS011;7268;50.792;0.252;2022-07-23T11:34:33;2.33;;;0.90;;
14369;SDS011;7268;50.792;0.252;2022-07-23T11:37:02;4.72;;;1.02;;
14369;SDS011;7268;50.792;0.252;2022-07-23T11:39:30;7.13;;;1.33;;
14369;SDS011;7268;50.792;0.252;2022-07-23T11:41:58;5.30;;;1.10;;
14369;SDS011;7268;50.792;0.252;2022-07-23T11:46:56;5.05;;;1.20;;
14369;SDS011;7268;50.792;0.252;2022-07-23T11:49:25;8.02;;;1.40;;
14369;SDS011;7268;50.792;0.252;2022-07-23T11:52:02;6.45;;;1.33;;
14369;SDS011;7268;50.792;0.252;2022-07-23T11:54:31;5.75;;;1.45;;
14369;SDS011;7268;50.792;0.252;2022-07-23T11:57:05;3.17;;;1.20;;
14369;SDS011;7268;50.792;0.252;2022-07-23T11:59:32;6.53;;;1.42;;
14369;SDS011;7268;50.792;0.252;2022-07-23T12:02:04;7.85;;;1.45;;
14369;SDS011;7268;50.792;0.252;2022-07-23T12:04:46;5.68;;;1.30;;
14369;SDS011;7268;50.792;0.252;2022-07-23T12:07:30;8.10;;;1.52;;
14369;SDS011;7268;50.792;0.252;2022-07-23T12:09:59;6.32;;;1.20;;
14369;SDS011;7268;50.792;0.252;2022-07-23T12:12:26;6.25;;;1.38;;
14369;SDS011;7268;50.792;0.252;2022-07-23T12:14:55;6.15;;;1.50;;
14369;SDS011;7268;50.792;0.252;2022-07-23T12:17:29;3.55;;;1.50;;
14369;SDS011;7268;50.792;0.252;2022-07-23T12:19:57;6.13;;;1.50;;
14369;SDS011;7268;50.792;0.252;2022-07-23T12:22:26;7.18;;;1.63;;
14369;SDS011;7268;50.792;0.252;2022-07-23T12:24:57;8.43;;;1.80;;
14369;SDS011;7268;50.792;0.252;2022-07-23T12:27:25;6.45;;;1.55;;
14369;SDS011;7268;50.792;0.252;2022-07-23T12:29:53;9.20;;;1.83;;
14369;SDS011;7268;50.792;0.252;2022-07-23T12:32:27;3.10;;;1.40;;
14369;SDS011;7268;50.792;0.252;2022-07-23T12:35:08;5.57;;;1.30;;
14369;SDS011;7268;50.792;0.252;2022-07-23T12:37:36;6.82;;;1.38;;
14369;SDS011;7268;50.792;0.252;2022-07-23T12:42:53;3.17;;;1.10;;
14369;SDS011;7268;50.792;0.252;2022-07-23T12:45:21;7.35;;;1.67;;
14369;SDS011;7268;50.792;0.252;2022-07-23T12:48:05;4.65;;;1.42;;
14369;SDS011;7268;50.792;0.252;2022-07-23T12:53:08;7.03;;;0.93;;
14369;SDS011;7268;50.792;0.252;2022-07-23T12:55:45;6.78;;;1.10;;
14369;SDS011;7268;50.792;0.252;2022-07-23T12:58:42;6.18;;;1.23;;
14369;SDS011;7268;50.792;0.252;2022-07-23T13:01:21;4.72;;;0.90;;
14369;SDS011;7268;50.792;0.252;2022-07-23T13:04:12;4.35;;;0.90;;
14369;SDS011;7268;50.792;0.252;2022-07-23T13:09:07;4.95;;;1.10;;
14369;SDS011;7268;50.792;0.252;2022-07-23T13:11:35;2.80;;;0.80;;
14369;SDS011;7268;50.792;0.252;2022-07-23T13:14:02;3.00;;;1.00;;
14369;SDS011;7268;50.792;0.252;2022-07-23T13:16:34;2.47;;;0.93;;
14369;SDS011;7268;50.792;0.252;2022-07-23T13:19:02;5.78;;;1.13;;
14369;SDS011;7268;50.792;0.252;2022-07-23T13:21:30;6.32;;;1.10;;
14369;SDS011;7268;50.792;0.252;2022-07-23T13:23:57;2.60;;;1.08;;
14369;SDS011;7268;50.792;0.252;2022-07-23T13:26:25;2.65;;;0.73;;
14369;SDS011;7268;50.792;0.252;2022-07-23T13:28:52;5.07;;;1.20;;
14369;SDS011;7268;50.792;0.252;2022-07-23T13:31:20;5.53;;;1.00;;
14369;SDS011;7268;50.792;0.252;2022-07-23T13:33:50;3.47;;;0.98;;
14369;SDS011;7268;50.792;0.252;2022-07-23T13:36:17;1.45;;;0.85;;
14369;SDS011;7268;50.792;0.252;2022-07-23T13:38:44;3.40;;;1.00;;
14369;SDS011;7268;50.792;0.252;2022-07-23T13:41:12;3.53;;;1.05;;
14369;SDS011;7268;50.792;0.252;2022-07-23T13:43:44;3.92;;;0.90;;
14369;SDS011;7268;50.792;0.252;2022-07-23T13:46:12;7.43;;;1.13;;
14369;SDS011;7268;50.792;0.252;2022-07-23T13:48:40;5.53;;;1.27;;
14369;SDS011;7268;50.792;0.252;2022-07-23T13:51:07;4.30;;;1.13;;
14369;SDS011;7268;50.792;0.252;2022-07-23T13:53:36;5.88;;;0.93;;
14369;SDS011;7268;50.792;0.252;2022-07-23T13:56:04;3.47;;;1.00;;
14369;SDS011;7268;50.792;0.252;2022-07-23T13:58:31;9.77;;;1.60;;
14369;SDS011;7268;50.792;0.252;2022-07-23T14:00:59;4.97;;;1.02;;
14369;SDS011;7268;50.792;0.252;2022-07-23T14:03:26;5.35;;;1.00;;
14369;SDS011;7268;50.792;0.252;2022-07-23T14:05:54;3.17;;;1.08;;
14369;SDS011;7268;50.792;0.252;2022-07-23T14:08:41;4.15;;;0.90;;
14369;SDS011;7268;50.792;0.252;2022-07-23T14:11:10;5.18;;;1.02;;
14369;SDS011;7268;50.792;0.252;2022-07-23T14:13:37;5.18;;;1.00;;
14369;SDS011;7268;50.792;0.252;2022-07-23T14:16:04;4.47;;;1.17;;
14369;SDS011;7268;50.792;0.252;2022-07-23T14:18:32;6.05;;;1.30;;
14369;SDS011;7268;50.792;0.252;2022-07-23T14:20:59;2.55;;;0.80;;
14369;SDS011;7268;50.792;0.252;2022-07-23T14:23:27;6.70;;;1.08;;
14369;SDS011;7268;50.792;0.252;2022-07-23T14:25:56;3.45;;;1.00;;
14369;SDS011;7268;50.792;0.252;2022-07-23T14:28:23;5.20;;;1.00;;
14369;SDS011;7268;50.792;0.252;2022-07-23T14:30:51;8.23;;;1.23;;
14369;SDS011;7268;50.792;0.252;2022-07-23T14:33:18;3.28;;;1.13;;
14369;SDS011;7268;50.792;0.252;2022-07-23T14:35:47;7.72;;;1.38;;
14369;SDS011;7268;50.792;0.252;2022-07-23T14:38:14;4.75;;;1.10;;
14369;SDS011;7268;50.792;0.252;2022-07-23T14:40:42;3.38;;;0.75;;
14369;SDS011;7268;50.792;0.252;2022-07-23T14:43:10;3.60;;;0.80;;
14369;SDS011;7268;50.792;0.252;2022-07-23T14:45:38;6.22;;;0.93;;
14369;SDS011;7268;50.792;0.252;2022-07-23T14:48:07;4.60;;;1.00;;
14369;SDS011;7268;50.792;0.252;2022-07-23T14:50:34;3.80;;;1.00;;
14369;SDS011;7268;50.792;0.252;2022-07-23T14:53:02;2.42;;;0.68;;
14369;SDS011;7268;50.792;0.252;2022-07-23T14:55:30;4.88;;;0.80;;
14369;SDS011;7268;50.792;0.252;2022-07-23T14:57:58;6.25;;;0.85;;
14369;SDS011;7268;50.792;0.252;2022-07-23T15:00:45;4.97;;;0.77;;
14369;SDS011;7268;50.792;0.252;2022-07-23T15:03:13;2.35;;;0.43;;
14369;SDS011;7268;50.792;0.252;2022-07-23T15:05:41;3.03;;;0.60;;
14369;SDS011;7268;50.792;0.252;2022-07-23T15:08:08;3.33;;;0.57;;
14369;SDS011;7268;50.792;0.252;2022-07-23T15:10:36;2.90;;;0.80;;
14369;SDS011;7268;50.792;0.252;2022-07-23T15:13:03;1.08;;;0.60;;
14369;SDS011;7268;50.792;0.252;2022-07-23T15:15:33;3.75;;;0.63;;
14369;SDS011;7268;50.792;0.252;2022-07-23T15:18:01;2.85;;;0.68;;
14369;SDS011;7268;50.792;0.252;2022-07-23T15:20:28;1.70;;;0.70;;
14369;SDS011;7268;50.792;0.252;2022-07-23T15:23:04;3.17;;;0.73;;
14369;SDS011;7268;50.792;0.252;2022-07-23T15:25:33;3.85;;;0.65;;
14369;SDS011;7268;50.792;0.252;2022-07-23T15:28:01;1.77;;;0.60;;
14369;SDS011;7268;50.792;0.252;2022-07-23T15:30:29;1.77;;;0.50;;
14369;SDS011;7268;50.792;0.252;2022-07-23T15:32:56;0.95;;;0.60;;
14369;SDS011;7268;50.792;0.252;2022-07-23T15:35:24;1.58;;;0.40;;
14369;SDS011;7268;50.792;0.252;2022-07-23T15:37:51;1.50;;;0.50;;
14369;SDS011;7268;50.792;0.252;2022-07-23T15:40:20;3.92;;;0.60;;
14369;SDS011;7268;50.792;0.252;2022-07-23T15:42:47;2.05;;;0.50;;
14369;SDS011;7268;50.792;0.252;2022-07-23T15:45:15;1.77;;;0.60;;
14369;SDS011;7268;50.792;0.252;2022-07-23T15:47:43;1.17;;;0.60;;
14369;SDS011;7268;50.792;0.252;2022-07-23T15:50:10;3.58;;;0.40;;
14369;SDS011;7268;50.792;0.252;2022-07-23T15:52:38;1.67;;;0.50;;